createdAt,value
2022-12-03T00:00:00.316Z,1019.54
2022-12-03T00:01:00.285Z,1019.55
2022-12-03T00:02:00.268Z,1019.53
2022-12-03T00:03:00.366Z,1019.50
2022-12-03T00:04:00.461Z,1019.51
2022-12-03T00:05:00.259Z,1019.47
2022-12-03T00:06:00.214Z,1019.50
2022-12-03T00:07:00.206Z,1019.48
2022-12-03T00:08:00.250Z,1019.46
2022-12-03T00:09:00.204Z,1019.54
2022-12-03T00:10:00.176Z,1019.51
2022-12-03T00:11:00.154Z,1019.45
2022-12-03T00:12:00.143Z,1019.50
2022-12-03T00:13:00.141Z,1019.49
2022-12-03T00:14:00.137Z,1019.50
2022-12-03T00:15:00.142Z,1019.47
2022-12-03T00:16:00.219Z,1019.50
2022-12-03T00:17:00.082Z,1019.51
2022-12-03T00:18:00.084Z,1019.52
2022-12-03T00:19:00.070Z,1019.44
2022-12-03T00:20:00.140Z,1019.44
2022-12-03T00:21:00.016Z,1019.45
2022-12-03T00:22:00.002Z,1019.50
2022-12-03T00:22:59.997Z,1019.47
2022-12-03T00:23:59.975Z,1019.55
2022-12-03T00:25:00.030Z,1019.44
2022-12-03T00:25:59.951Z,1019.46
2022-12-03T00:26:59.942Z,1019.47
2022-12-03T00:27:59.925Z,1019.48
2022-12-03T00:28:59.921Z,1019.51
2022-12-03T00:29:59.925Z,1019.49
2022-12-03T00:30:59.939Z,1019.49
2022-12-03T00:31:59.864Z,1019.48
2022-12-03T00:32:59.874Z,1019.47
2022-12-03T00:33:59.846Z,1019.45
2022-12-03T00:34:59.826Z,1019.41
2022-12-03T00:35:59.839Z,1019.44
2022-12-03T00:36:59.804Z,1019.45
2022-12-03T00:37:59.782Z,1019.45
2022-12-03T00:38:59.777Z,1019.42
2022-12-03T00:39:59.777Z,1019.41
2022-12-03T00:40:59.783Z,1019.41
2022-12-03T00:41:59.756Z,1019.40
2022-12-03T00:42:59.724Z,1019.42
2022-12-03T00:43:59.712Z,1019.37
2022-12-03T00:44:59.696Z,1019.36
2022-12-03T00:45:59.791Z,1019.35
2022-12-03T00:46:59.702Z,1019.32
2022-12-03T00:47:59.652Z,1019.35
2022-12-03T00:48:59.678Z,1019.36
2022-12-03T00:49:59.624Z,1019.41
2022-12-03T00:50:59.665Z,1019.37
2022-12-03T00:51:59.595Z,1019.38
2022-12-03T00:52:59.586Z,1019.34
2022-12-03T00:53:59.564Z,1019.32
2022-12-03T00:54:59.566Z,1019.38
2022-12-03T00:55:59.585Z,1019.43
2022-12-03T00:56:59.562Z,1019.41
2022-12-03T00:57:59.526Z,1019.37
2022-12-03T00:58:59.505Z,1019.32
2022-12-03T00:59:59.495Z,1019.41
2022-12-03T01:00:59.508Z,1019.35
2022-12-03T01:01:59.493Z,1019.37
2022-12-03T01:02:59.472Z,1019.38
2022-12-03T01:03:59.438Z,1019.39
2022-12-03T01:04:59.507Z,1019.38
2022-12-03T01:05:59.434Z,1019.35
2022-12-03T01:06:59.397Z,1019.37
2022-12-03T01:07:59.423Z,1019.42
2022-12-03T01:08:59.386Z,1019.38
2022-12-03T01:09:59.407Z,1019.40
2022-12-03T01:10:59.356Z,1019.39
2022-12-03T01:11:59.342Z,1019.35
2022-12-03T01:12:59.317Z,1019.37
2022-12-03T01:13:59.304Z,1019.46
2022-12-03T01:14:59.296Z,1019.42
2022-12-03T01:15:59.379Z,1019.42
2022-12-03T01:16:59.267Z,1019.49
2022-12-03T01:17:59.258Z,1019.50
2022-12-03T01:18:59.246Z,1019.50
2022-12-03T01:19:59.226Z,1019.49
2022-12-03T01:20:59.227Z,1019.49
2022-12-03T01:21:59.205Z,1019.50
2022-12-03T01:22:59.185Z,1019.52
2022-12-03T01:23:59.179Z,1019.49
2022-12-03T01:24:59.165Z,1019.53
2022-12-03T01:25:59.165Z,1019.53
2022-12-03T01:26:59.135Z,1019.50
2022-12-03T01:27:59.120Z,1019.49
2022-12-03T01:28:59.095Z,1019.54
2022-12-03T01:29:59.086Z,1019.49
2022-12-03T01:30:59.240Z,1019.48
2022-12-03T01:31:59.078Z,1019.51
2022-12-03T01:32:59.049Z,1019.53
2022-12-03T01:33:59.036Z,1019.47
2022-12-03T01:34:59.028Z,1019.50
2022-12-03T01:35:59.037Z,1019.48
2022-12-03T01:36:58.988Z,1019.49
2022-12-03T01:37:58.987Z,1019.49
2022-12-03T01:38:58.983Z,1019.52
2022-12-03T01:39:58.959Z,1019.53
2022-12-03T01:40:58.960Z,1019.50
2022-12-03T01:41:58.946Z,1019.48
2022-12-03T01:42:58.914Z,1019.49
2022-12-03T01:43:58.914Z,1019.45
2022-12-03T01:44:58.894Z,1019.46
2022-12-03T01:45:58.897Z,1019.53
2022-12-03T01:46:58.934Z,1019.49
2022-12-03T01:47:58.857Z,1019.46
2022-12-03T01:48:58.835Z,1019.50
2022-12-03T01:49:58.826Z,1019.51
2022-12-03T01:50:58.843Z,1019.48
2022-12-03T01:51:58.806Z,1019.50
2022-12-03T01:52:58.787Z,1019.45
2022-12-03T01:53:58.768Z,1019.44
2022-12-03T01:54:58.757Z,1019.47
2022-12-03T01:55:58.760Z,1019.50
2022-12-03T01:56:58.727Z,1019.46
2022-12-03T01:57:58.718Z,1019.49
2022-12-03T01:58:58.704Z,1019.45
2022-12-03T01:59:58.707Z,1019.42
2022-12-03T02:00:58.690Z,1019.44
2022-12-03T02:01:58.683Z,1019.43
2022-12-03T02:02:58.647Z,1019.44
2022-12-03T02:03:58.714Z,1019.44
2022-12-03T02:04:58.627Z,1019.43
2022-12-03T02:05:58.629Z,1019.46
2022-12-03T02:06:58.596Z,1019.42
2022-12-03T02:07:58.645Z,1019.44
2022-12-03T02:08:58.568Z,1019.48
2022-12-03T02:09:58.556Z,1019.44
2022-12-03T02:10:58.577Z,1019.42
2022-12-03T02:11:58.542Z,1019.41
2022-12-03T02:12:58.507Z,1019.41
2022-12-03T02:13:58.505Z,1019.37
2022-12-03T02:14:58.486Z,1019.45
2022-12-03T02:15:58.529Z,1019.40
2022-12-03T02:16:58.474Z,1019.47
2022-12-03T02:17:58.448Z,1019.37
2022-12-03T02:18:58.427Z,1019.43
2022-12-03T02:19:58.436Z,1019.39
2022-12-03T02:20:58.436Z,1019.35
2022-12-03T02:21:58.397Z,1019.40
2022-12-03T02:22:58.377Z,1019.37
2022-12-03T02:23:58.376Z,1019.33
2022-12-03T02:24:58.356Z,1019.35
2022-12-03T02:25:58.366Z,1019.35
2022-12-03T02:26:58.347Z,1019.32
2022-12-03T02:27:58.316Z,1019.31
2022-12-03T02:28:58.315Z,1019.35
2022-12-03T02:29:58.290Z,1019.29
2022-12-03T02:30:58.332Z,1019.34
2022-12-03T02:31:58.327Z,1019.28
2022-12-03T02:32:58.246Z,1019.27
2022-12-03T02:33:58.259Z,1019.27
2022-12-03T02:34:58.215Z,1019.33
2022-12-03T02:36:03.337Z,1019.26
2022-12-03T02:36:59.207Z,1019.27
2022-12-03T02:37:58.178Z,1019.28
2022-12-03T02:38:58.167Z,1019.20
2022-12-03T02:39:58.149Z,1019.23
2022-12-03T02:40:58.147Z,1019.23
2022-12-03T02:41:58.148Z,1019.21
2022-12-03T02:42:58.109Z,1019.23
2022-12-03T02:43:58.097Z,1019.21
2022-12-03T02:45:03.505Z,1019.22
2022-12-03T02:45:59.089Z,1019.19
2022-12-03T02:46:58.147Z,1019.18
2022-12-03T02:47:58.047Z,1019.20
2022-12-03T02:48:58.058Z,1019.16
2022-12-03T02:49:58.031Z,1019.11
2022-12-03T02:50:58.007Z,1019.13
2022-12-03T02:51:58.014Z,1019.15
2022-12-03T02:52:57.976Z,1019.09
2022-12-03T02:53:57.967Z,1019.09
2022-12-03T02:54:57.958Z,1019.11
2022-12-03T02:55:57.938Z,1019.11
2022-12-03T02:56:57.948Z,1019.09
2022-12-03T02:57:57.910Z,1019.13
2022-12-03T02:58:57.918Z,1019.06
2022-12-03T02:59:57.888Z,1019.06
2022-12-03T03:00:57.930Z,1019.05
2022-12-03T03:01:57.934Z,1019.03
2022-12-03T03:02:57.837Z,1019.03
2022-12-03T03:03:57.831Z,1019.01
2022-12-03T03:04:57.807Z,1019.03
2022-12-03T03:05:57.806Z,1018.99
2022-12-03T03:06:57.807Z,1019.02
2022-12-03T03:07:57.830Z,1018.99
2022-12-03T03:08:57.769Z,1018.97
2022-12-03T03:09:57.748Z,1018.98
2022-12-03T03:10:57.738Z,1019.02
2022-12-03T03:11:57.750Z,1019.08
2022-12-03T03:12:57.708Z,1019.07
2022-12-03T03:13:57.697Z,1019.01
2022-12-03T03:14:57.679Z,1019.04
2022-12-03T03:15:57.707Z,1019.04
2022-12-03T03:16:57.690Z,1019.07
2022-12-03T03:17:57.657Z,1019.12
2022-12-03T03:18:57.629Z,1019.09
2022-12-03T03:19:57.617Z,1019.07
2022-12-03T03:20:57.607Z,1019.05
2022-12-03T03:21:57.609Z,1019.14
2022-12-03T03:22:57.584Z,1019.04
2022-12-03T03:23:57.568Z,1019.07
2022-12-03T03:24:57.558Z,1019.08
2022-12-03T03:25:57.538Z,1019.08
2022-12-03T03:26:57.536Z,1019.05
2022-12-03T03:27:57.531Z,1019.05
2022-12-03T03:28:57.497Z,1019.03
2022-12-03T03:29:57.481Z,1019.11
2022-12-03T03:30:57.483Z,1019.03
2022-12-03T03:31:57.540Z,1019.03
2022-12-03T03:32:57.449Z,1019.05
2022-12-03T03:33:57.469Z,1019.04
2022-12-03T03:34:57.428Z,1019.03
2022-12-03T03:35:57.415Z,1019.04
2022-12-03T03:36:57.405Z,1019.03
2022-12-03T03:37:57.387Z,1019.05
2022-12-03T03:38:57.372Z,1019.07
2022-12-03T03:39:57.349Z,1019.04
2022-12-03T03:40:57.346Z,1019.01
2022-12-03T03:43:07.156Z,1019.00
2022-12-03T03:44:09.772Z,1019.04
2022-12-03T03:45:07.112Z,1019.03
2022-12-03T03:46:07.109Z,1019.01
2022-12-03T03:47:07.163Z,1019.04
2022-12-03T03:48:07.062Z,1019.00
2022-12-03T03:49:07.053Z,1019.01
2022-12-03T03:50:07.045Z,1018.99
2022-12-03T03:51:07.020Z,1019.04
2022-12-03T03:52:07.035Z,1019.00
2022-12-03T03:53:06.993Z,1019.00
2022-12-03T03:54:06.990Z,1018.98
2022-12-03T03:55:06.973Z,1018.99
2022-12-03T03:56:06.962Z,1018.95
2022-12-03T03:57:06.962Z,1018.98
2022-12-03T03:58:06.942Z,1018.95
2022-12-03T03:59:06.917Z,1018.95
2022-12-03T04:00:06.909Z,1018.91
2022-12-03T04:01:06.998Z,1018.94
2022-12-03T04:02:06.897Z,1018.90
2022-12-03T04:03:06.864Z,1018.94
2022-12-03T04:04:06.904Z,1018.96
2022-12-03T04:05:06.841Z,1018.93
2022-12-03T04:06:06.834Z,1018.96
2022-12-03T04:07:06.834Z,1018.93
2022-12-03T04:08:06.890Z,1018.95
2022-12-03T04:09:06.782Z,1018.93
2022-12-03T04:10:06.779Z,1018.95
2022-12-03T04:11:06.763Z,1018.90
2022-12-03T04:12:06.775Z,1018.93
2022-12-03T04:13:06.737Z,1018.92
2022-12-03T04:14:06.723Z,1018.90
2022-12-03T04:15:06.704Z,1018.89
2022-12-03T04:16:06.759Z,1018.93
2022-12-03T04:17:06.702Z,1018.90
2022-12-03T04:18:06.673Z,1018.90
2022-12-03T04:19:06.652Z,1018.89
2022-12-03T04:20:06.643Z,1018.89
2022-12-03T04:21:06.633Z,1018.87
2022-12-03T04:22:06.641Z,1018.84
2022-12-03T04:23:06.604Z,1018.88
2022-12-03T04:24:06.594Z,1018.81
2022-12-03T04:25:06.573Z,1018.82
2022-12-03T04:26:06.572Z,1018.83
2022-12-03T04:27:06.574Z,1018.80
2022-12-03T04:28:06.554Z,1018.82
2022-12-03T04:29:06.547Z,1018.79
2022-12-03T04:30:06.513Z,1018.83
2022-12-03T04:31:06.611Z,1018.78
2022-12-03T04:32:06.495Z,1018.84
2022-12-03T04:33:06.503Z,1018.79
2022-12-03T04:34:06.493Z,1018.80
2022-12-03T04:35:06.504Z,1018.82
2022-12-03T04:36:06.436Z,1018.83
2022-12-03T04:37:06.432Z,1018.84
2022-12-03T04:38:06.424Z,1018.81
2022-12-03T04:39:06.398Z,1018.80
2022-12-03T04:40:06.384Z,1018.83
2022-12-03T04:41:06.379Z,1018.80
2022-12-03T04:42:06.382Z,1018.80
2022-12-03T04:43:06.365Z,1018.78
2022-12-03T04:44:06.342Z,1018.79
2022-12-03T04:45:06.325Z,1018.76
2022-12-03T04:46:06.441Z,1018.76
2022-12-03T04:47:06.293Z,1018.78
2022-12-03T04:48:06.314Z,1018.82
2022-12-03T04:49:06.263Z,1018.78
2022-12-03T04:50:06.253Z,1018.76
2022-12-03T04:51:06.243Z,1018.80
2022-12-03T04:52:06.275Z,1018.74
2022-12-03T04:53:06.253Z,1018.77
2022-12-03T04:54:06.213Z,1018.75
2022-12-03T04:55:06.184Z,1018.70
2022-12-03T04:56:06.190Z,1018.73
2022-12-03T04:57:06.154Z,1018.74
2022-12-03T04:58:06.164Z,1018.75
2022-12-03T04:59:08.067Z,1018.74
2022-12-03T05:00:07.133Z,1018.67
2022-12-03T05:01:06.242Z,1018.70
2022-12-03T05:02:06.157Z,1018.66
2022-12-03T05:03:06.195Z,1018.67
2022-12-03T05:04:06.078Z,1018.69
2022-12-03T05:05:06.056Z,1018.70
2022-12-03T05:06:06.044Z,1018.61
2022-12-03T05:07:06.023Z,1018.66
2022-12-03T05:08:06.184Z,1018.71
2022-12-03T05:09:06.009Z,1018.69
2022-12-03T05:10:06.076Z,1018.65
2022-12-03T05:11:05.983Z,1018.66
2022-12-03T05:12:05.986Z,1018.67
2022-12-03T05:13:05.964Z,1018.72
2022-12-03T05:14:05.946Z,1018.70
2022-12-03T05:15:05.924Z,1018.64
2022-12-03T05:16:05.915Z,1018.69
2022-12-03T05:17:05.934Z,1018.66
2022-12-03T05:18:05.904Z,1018.72
2022-12-03T05:19:05.875Z,1018.69
2022-12-03T05:20:05.864Z,1018.68
2022-12-03T05:21:05.845Z,1018.70
2022-12-03T05:22:05.836Z,1018.70
2022-12-03T05:23:05.843Z,1018.75
2022-12-03T05:24:05.812Z,1018.73
2022-12-03T05:25:05.793Z,1018.67
2022-12-03T05:26:05.791Z,1018.73
2022-12-03T05:27:05.769Z,1018.66
2022-12-03T05:28:05.774Z,1018.65
2022-12-03T05:29:05.754Z,1018.67
2022-12-03T05:30:05.740Z,1018.65
2022-12-03T05:31:05.776Z,1018.62
2022-12-03T05:32:05.708Z,1018.64
2022-12-03T05:33:05.707Z,1018.61
2022-12-03T05:34:05.695Z,1018.64
2022-12-03T05:35:05.663Z,1018.68
2022-12-03T05:36:05.661Z,1018.67
2022-12-03T05:37:05.633Z,1018.66
2022-12-03T05:38:05.661Z,1018.66
2022-12-03T05:39:05.616Z,1018.64
2022-12-03T05:40:05.618Z,1018.65
2022-12-03T05:41:05.584Z,1018.63
2022-12-03T05:42:05.578Z,1018.71
2022-12-03T05:43:05.586Z,1018.64
2022-12-03T05:44:05.554Z,1018.65
2022-12-03T05:45:05.537Z,1018.63
2022-12-03T05:46:05.578Z,1018.63
2022-12-03T05:47:05.513Z,1018.66
2022-12-03T05:48:05.513Z,1018.61
2022-12-03T05:49:05.486Z,1018.60
2022-12-03T05:50:05.474Z,1018.62
2022-12-03T05:51:05.464Z,1018.59
2022-12-03T05:52:05.444Z,1018.59
2022-12-03T05:53:05.474Z,1018.55
2022-12-03T05:54:05.434Z,1018.59
2022-12-03T05:55:05.413Z,1018.59
2022-12-03T05:56:05.402Z,1018.55
2022-12-03T05:57:05.386Z,1018.56
2022-12-03T05:58:05.424Z,1018.58
2022-12-03T05:59:05.375Z,1018.60
2022-12-03T06:00:05.346Z,1018.64
2022-12-03T06:01:05.327Z,1018.59
2022-12-03T06:02:05.393Z,1018.66
2022-12-03T06:03:05.422Z,1018.65
2022-12-03T06:04:05.352Z,1018.65
2022-12-03T06:05:05.275Z,1018.65
2022-12-03T06:06:05.266Z,1018.64
2022-12-03T06:07:09.606Z,1018.69
2022-12-03T06:08:06.341Z,1018.71
2022-12-03T06:09:05.255Z,1018.70
2022-12-03T06:10:05.214Z,1018.71
2022-12-03T06:11:05.213Z,1018.74
2022-12-03T06:12:05.196Z,1018.73
2022-12-03T06:13:05.175Z,1018.71
2022-12-03T06:14:05.254Z,1018.67
2022-12-03T06:15:05.155Z,1018.63
2022-12-03T06:16:05.201Z,1018.65
2022-12-03T06:17:05.128Z,1018.71
2022-12-03T06:18:05.114Z,1018.68
2022-12-03T06:19:05.114Z,1018.66
2022-12-03T06:20:05.088Z,1018.65
2022-12-03T06:21:05.077Z,1018.69
2022-12-03T06:22:05.055Z,1018.67
2022-12-03T06:23:05.035Z,1018.64
2022-12-03T06:24:05.075Z,1018.65
2022-12-03T06:25:07.090Z,1018.66
2022-12-03T06:26:05.018Z,1018.62
2022-12-03T06:27:04.995Z,1018.61
2022-12-03T06:28:05.004Z,1018.60
2022-12-03T06:29:04.975Z,1018.57
2022-12-03T06:30:04.969Z,1018.63
2022-12-03T06:31:04.984Z,1018.58
2022-12-03T06:32:04.943Z,1018.59
2022-12-03T06:33:04.933Z,1018.58
2022-12-03T06:34:04.907Z,1018.54
2022-12-03T06:35:04.894Z,1018.51
2022-12-03T06:36:04.886Z,1018.51
2022-12-03T06:37:04.863Z,1018.53
2022-12-03T06:38:04.856Z,1018.51
2022-12-03T06:39:04.848Z,1018.50
2022-12-03T06:40:04.834Z,1018.57
2022-12-03T06:41:04.805Z,1018.53
2022-12-03T06:42:04.805Z,1018.50
2022-12-03T06:43:04.803Z,1018.51
2022-12-03T06:44:04.794Z,1018.48
2022-12-03T06:45:04.764Z,1018.54
2022-12-03T06:46:04.803Z,1018.53
2022-12-03T06:47:04.742Z,1018.53
2022-12-03T06:48:04.747Z,1018.53
2022-12-03T06:49:04.732Z,1018.56
2022-12-03T06:50:04.706Z,1018.53
2022-12-03T06:51:04.685Z,1018.55
2022-12-03T06:52:04.674Z,1018.57
2022-12-03T06:53:04.655Z,1018.54
2022-12-03T06:54:04.668Z,1018.52
2022-12-03T06:55:04.629Z,1018.55
2022-12-03T06:56:04.615Z,1018.51
2022-12-03T06:57:04.605Z,1018.51
2022-12-03T06:58:04.596Z,1018.56
2022-12-03T06:59:04.594Z,1018.54
2022-12-03T07:00:04.565Z,1018.53
2022-12-03T07:01:04.544Z,1018.53
2022-12-03T07:02:04.599Z,1018.50
2022-12-03T07:03:04.582Z,1018.51
2022-12-03T07:04:04.536Z,1018.52
2022-12-03T07:05:04.496Z,1018.49
2022-12-03T07:06:04.485Z,1018.56
2022-12-03T07:07:04.470Z,1018.49
2022-12-03T07:08:04.535Z,1018.45
2022-12-03T07:09:04.495Z,1018.48
2022-12-03T07:10:04.437Z,1018.48
2022-12-03T07:11:04.426Z,1018.47
2022-12-03T07:12:04.417Z,1018.49
2022-12-03T07:13:04.436Z,1018.48
2022-12-03T07:14:05.755Z,1018.46
2022-12-03T07:15:04.367Z,1018.49
2022-12-03T07:16:04.427Z,1018.52
2022-12-03T07:17:04.344Z,1018.49
2022-12-03T07:18:04.334Z,1018.49
2022-12-03T07:19:04.338Z,1018.63
2022-12-03T07:20:04.314Z,1018.48
2022-12-03T07:21:04.284Z,1018.56
2022-12-03T07:22:04.275Z,1018.46
2022-12-03T07:23:04.264Z,1018.50
2022-12-03T07:24:04.266Z,1018.52
2022-12-03T07:25:04.237Z,1018.52
2022-12-03T07:26:04.225Z,1018.49
2022-12-03T07:27:04.208Z,1018.51
2022-12-03T07:28:04.196Z,1018.54
2022-12-03T07:29:04.207Z,1018.59
2022-12-03T07:30:04.176Z,1018.57
2022-12-03T07:31:04.193Z,1018.56
2022-12-03T07:32:04.154Z,1018.55
2022-12-03T07:33:04.126Z,1018.61
2022-12-03T07:34:04.236Z,1018.56
2022-12-03T07:35:04.106Z,1018.54
2022-12-03T07:36:04.096Z,1018.58
2022-12-03T07:37:04.076Z,1018.56
2022-12-03T07:38:04.076Z,1018.52
2022-12-03T07:39:04.066Z,1018.51
2022-12-03T07:40:04.047Z,1018.54
2022-12-03T07:41:04.028Z,1018.52
2022-12-03T07:42:04.023Z,1018.50
2022-12-03T07:43:04.004Z,1018.49
2022-12-03T07:44:06.603Z,1018.55
2022-12-03T07:45:04.976Z,1018.53
2022-12-03T07:46:03.965Z,1018.54
2022-12-03T07:47:03.977Z,1018.50
2022-12-03T07:48:03.945Z,1018.52
2022-12-03T07:49:03.965Z,1018.51
2022-12-03T07:50:03.926Z,1018.50
2022-12-03T07:51:03.911Z,1018.54
2022-12-03T07:52:03.892Z,1018.59
2022-12-03T07:53:03.888Z,1018.54
2022-12-03T07:54:03.880Z,1018.59
2022-12-03T07:55:03.855Z,1018.51
2022-12-03T07:56:03.858Z,1018.57
2022-12-03T07:57:03.818Z,1018.55
2022-12-03T07:58:03.806Z,1018.54
2022-12-03T07:59:03.838Z,1018.55
2022-12-03T08:00:03.789Z,1018.55
2022-12-03T08:01:03.872Z,1018.53
2022-12-03T08:02:03.839Z,1018.51
2022-12-03T08:03:03.749Z,1018.54
2022-12-03T08:04:03.779Z,1018.56
2022-12-03T08:05:03.715Z,1018.60
2022-12-03T08:06:03.715Z,1018.55
2022-12-03T08:07:03.693Z,1018.58
2022-12-03T08:08:03.720Z,1018.59
2022-12-03T08:09:03.707Z,1018.57
2022-12-03T08:10:03.656Z,1018.58
2022-12-03T08:11:03.647Z,1018.56
2022-12-03T08:12:03.635Z,1018.58
2022-12-03T08:13:03.617Z,1018.58
2022-12-03T08:14:03.622Z,1018.54
2022-12-03T08:15:03.586Z,1018.56
2022-12-03T08:16:03.623Z,1018.55
2022-12-03T08:17:03.740Z,1018.53
2022-12-03T08:18:03.556Z,1018.50
2022-12-03T08:19:03.552Z,1018.49
2022-12-03T08:20:03.538Z,1018.50
2022-12-03T08:21:03.517Z,1018.52
2022-12-03T08:22:03.497Z,1018.55
2022-12-03T08:23:03.488Z,1018.57
2022-12-03T08:24:03.483Z,1018.54
2022-12-03T08:25:03.458Z,1018.54
2022-12-03T08:26:03.449Z,1018.56
2022-12-03T08:27:03.436Z,1018.50
2022-12-03T08:28:03.417Z,1018.56
2022-12-03T08:29:03.417Z,1018.54
2022-12-03T08:30:03.386Z,1018.57
2022-12-03T08:31:03.386Z,1018.52
2022-12-03T08:32:03.398Z,1018.56
2022-12-03T08:33:03.420Z,1018.56
2022-12-03T08:34:03.356Z,1018.59
2022-12-03T08:35:03.326Z,1018.60
2022-12-03T08:36:03.319Z,1018.53
2022-12-03T08:37:03.307Z,1018.53
2022-12-03T08:38:03.317Z,1018.54
2022-12-03T08:39:03.317Z,1018.54
2022-12-03T08:40:03.277Z,1018.54
2022-12-03T08:41:03.256Z,1018.56
2022-12-03T08:42:03.246Z,1018.53
2022-12-03T08:43:03.245Z,1018.52
2022-12-03T08:44:03.227Z,1018.57
2022-12-03T08:45:03.214Z,1018.55
2022-12-03T08:46:03.256Z,1018.49
2022-12-03T08:47:03.177Z,1018.53
2022-12-03T08:48:03.164Z,1018.59
2022-12-03T08:49:03.163Z,1018.54
2022-12-03T08:50:03.136Z,1018.57
2022-12-03T08:51:03.118Z,1018.55
2022-12-03T08:52:03.127Z,1018.56
2022-12-03T08:53:03.116Z,1018.58
2022-12-03T08:54:03.099Z,1018.63
2022-12-03T08:55:03.074Z,1018.62
2022-12-03T08:56:03.055Z,1018.61
2022-12-03T08:57:03.045Z,1018.60
2022-12-03T08:58:03.032Z,1018.61
2022-12-03T08:59:03.048Z,1018.65
2022-12-03T09:00:03.017Z,1018.61
2022-12-03T09:01:03.011Z,1018.64
2022-12-03T09:02:03.008Z,1018.65
2022-12-03T09:03:03.006Z,1018.67
2022-12-03T09:04:03.125Z,1018.61
2022-12-03T09:05:02.967Z,1018.62
2022-12-03T09:06:02.940Z,1018.62
2022-12-03T09:07:02.916Z,1018.60
2022-12-03T09:08:03.007Z,1018.62
2022-12-03T09:09:06.759Z,1018.59
2022-12-03T09:10:02.876Z,1018.59
2022-12-03T09:11:02.867Z,1018.61
2022-12-03T09:12:02.850Z,1018.61
2022-12-03T09:13:02.836Z,1018.58
2022-12-03T09:14:02.864Z,1018.53
2022-12-03T09:15:02.826Z,1018.54
2022-12-03T09:16:02.798Z,1018.56
2022-12-03T09:17:02.843Z,1018.55
2022-12-03T09:18:02.778Z,1018.56
2022-12-03T09:19:02.777Z,1018.56
2022-12-03T09:20:02.756Z,1018.55
2022-12-03T09:21:02.745Z,1018.58
2022-12-03T09:22:02.720Z,1018.57
2022-12-03T09:23:02.717Z,1018.56
2022-12-03T09:24:02.707Z,1018.54
2022-12-03T09:25:02.707Z,1018.61
2022-12-03T09:26:02.667Z,1018.54
2022-12-03T09:27:02.667Z,1018.57
2022-12-03T09:28:02.648Z,1018.58
2022-12-03T09:29:06.343Z,1018.57
2022-12-03T09:30:03.635Z,1018.52
2022-12-03T09:31:02.610Z,1018.57
2022-12-03T09:32:02.629Z,1018.58
2022-12-03T09:33:02.579Z,1018.53
2022-12-03T09:34:02.569Z,1018.56
2022-12-03T09:35:02.594Z,1018.62
2022-12-03T09:36:02.538Z,1018.56
2022-12-03T09:37:02.527Z,1018.61
2022-12-03T09:38:02.509Z,1018.59
2022-12-03T09:39:02.521Z,1018.62
2022-12-03T09:40:02.477Z,1018.61
2022-12-03T09:41:02.478Z,1018.62
2022-12-03T09:42:02.458Z,1018.56
2022-12-03T09:43:09.481Z,1018.59
2022-12-03T09:44:04.422Z,1018.54
2022-12-03T09:45:02.420Z,1018.59
2022-12-03T09:46:02.432Z,1018.61
2022-12-03T09:47:02.401Z,1018.57
2022-12-03T09:48:02.376Z,1018.56
2022-12-03T09:49:02.383Z,1018.54
2022-12-03T09:50:02.357Z,1018.55
2022-12-03T09:51:02.348Z,1018.57
2022-12-03T09:52:02.320Z,1018.53
2022-12-03T09:53:02.323Z,1018.54
2022-12-03T09:54:02.313Z,1018.50
2022-12-03T09:55:02.291Z,1018.50
2022-12-03T09:56:02.276Z,1018.49
2022-12-03T09:57:02.270Z,1018.46
2022-12-03T09:58:02.243Z,1018.43
2022-12-03T09:59:02.252Z,1018.43
2022-12-03T10:00:02.233Z,1018.46
2022-12-03T10:01:02.258Z,1018.43
2022-12-03T10:02:02.301Z,1018.40
2022-12-03T10:03:02.182Z,1018.41
2022-12-03T10:04:02.275Z,1018.40
2022-12-03T10:05:02.220Z,1018.41
2022-12-03T10:06:02.141Z,1018.43
2022-12-03T10:07:02.121Z,1018.42
2022-12-03T10:08:02.193Z,1018.38
2022-12-03T10:09:02.127Z,1018.42
2022-12-03T10:10:02.084Z,1018.39
2022-12-03T10:11:02.077Z,1018.39
2022-12-03T10:12:02.061Z,1018.41
2022-12-03T10:13:02.052Z,1018.36
2022-12-03T10:14:02.051Z,1018.36
2022-12-03T10:15:02.022Z,1018.33
2022-12-03T10:16:02.010Z,1018.30
2022-12-03T10:17:02.056Z,1018.26
2022-12-03T10:18:01.988Z,1018.25
2022-12-03T10:19:01.981Z,1018.25
2022-12-03T10:20:01.961Z,1018.26
2022-12-03T10:21:01.942Z,1018.27
2022-12-03T10:22:01.932Z,1018.26
2022-12-03T10:23:01.916Z,1018.26
2022-12-03T10:24:01.924Z,1018.20
2022-12-03T10:25:01.893Z,1018.18
2022-12-03T10:26:01.873Z,1018.21
2022-12-03T10:27:01.868Z,1018.14
2022-12-03T10:28:01.841Z,1018.11
2022-12-03T10:29:01.853Z,1018.09
2022-12-03T10:30:01.821Z,1018.07
2022-12-03T10:31:01.871Z,1018.06
2022-12-03T10:32:01.804Z,1018.10
2022-12-03T10:33:01.786Z,1018.07
2022-12-03T10:34:01.773Z,1018.02
2022-12-03T10:35:01.769Z,1017.99
2022-12-03T10:36:01.735Z,1018.00
2022-12-03T10:37:01.734Z,1018.00
2022-12-03T10:38:01.716Z,1017.95
2022-12-03T10:39:01.713Z,1017.94
2022-12-03T10:40:01.685Z,1017.93
2022-12-03T10:41:01.682Z,1017.90
2022-12-03T10:42:01.664Z,1017.90
2022-12-03T10:43:01.654Z,1017.84
2022-12-03T10:44:01.655Z,1017.84
2022-12-03T10:45:01.634Z,1017.85
2022-12-03T10:46:04.278Z,1017.91
2022-12-03T10:47:01.697Z,1017.91
2022-12-03T10:48:01.581Z,1017.90
2022-12-03T10:49:01.591Z,1017.82
2022-12-03T10:50:01.552Z,1017.82
2022-12-03T10:51:01.546Z,1017.81
2022-12-03T10:52:01.522Z,1017.79
2022-12-03T10:53:01.525Z,1017.75
2022-12-03T10:54:01.550Z,1017.72
2022-12-03T10:55:01.499Z,1017.72
2022-12-03T10:56:01.481Z,1017.72
2022-12-03T10:57:01.492Z,1017.69
2022-12-03T10:58:01.460Z,1017.72
2022-12-03T10:59:01.461Z,1017.72
2022-12-03T11:00:01.429Z,1017.56
2022-12-03T11:01:01.473Z,1017.61
2022-12-03T11:02:01.472Z,1017.62
2022-12-03T11:03:01.391Z,1017.64
2022-12-03T11:04:01.465Z,1017.62
2022-12-03T11:05:01.369Z,1017.59
2022-12-03T11:06:01.345Z,1017.57
2022-12-03T11:07:01.335Z,1017.51
2022-12-03T11:08:01.365Z,1017.54
2022-12-03T11:09:05.417Z,1017.51
2022-12-03T11:10:02.291Z,1017.54
2022-12-03T11:11:01.277Z,1017.48
2022-12-03T11:12:01.264Z,1017.52
2022-12-03T11:13:01.255Z,1017.48
2022-12-03T11:14:01.255Z,1017.45
2022-12-03T11:15:01.238Z,1017.43
2022-12-03T11:16:01.262Z,1017.43
2022-12-03T11:17:01.205Z,1017.45
2022-12-03T11:18:01.190Z,1017.42
2022-12-03T11:19:01.229Z,1017.38
2022-12-03T11:20:01.166Z,1017.42
2022-12-03T11:21:01.170Z,1017.46
2022-12-03T11:22:01.139Z,1017.43
2022-12-03T11:23:01.124Z,1017.44
2022-12-03T11:24:01.131Z,1017.42
2022-12-03T11:25:01.108Z,1017.43
2022-12-03T11:26:01.090Z,1017.40
2022-12-03T11:27:01.074Z,1017.41
2022-12-03T11:28:01.055Z,1017.45
2022-12-03T11:29:01.057Z,1017.43
2022-12-03T11:30:01.065Z,1017.40
2022-12-03T11:31:01.120Z,1017.40
2022-12-03T11:32:00.998Z,1017.42
2022-12-03T11:33:00.995Z,1017.36
2022-12-03T11:34:00.994Z,1017.40
2022-12-03T11:35:00.972Z,1017.30
2022-12-03T11:36:00.951Z,1017.33
2022-12-03T11:37:02.098Z,1017.33
2022-12-03T11:38:00.928Z,1017.32
2022-12-03T11:39:00.927Z,1017.25
2022-12-03T11:40:00.906Z,1017.23
2022-12-03T11:41:00.898Z,1017.26
2022-12-03T11:42:00.876Z,1017.22
2022-12-03T11:43:00.865Z,1017.21
2022-12-03T11:44:00.869Z,1017.21
2022-12-03T11:45:00.837Z,1017.20
2022-12-03T11:46:04.186Z,1017.20
2022-12-03T11:47:00.866Z,1017.21
2022-12-03T11:48:00.790Z,1017.20
2022-12-03T11:49:00.804Z,1017.21
2022-12-03T11:50:00.766Z,1017.16
2022-12-03T11:51:00.756Z,1017.13
2022-12-03T11:52:00.751Z,1017.09
2022-12-03T11:53:00.729Z,1017.08
2022-12-03T11:54:00.737Z,1017.13
2022-12-03T11:55:00.705Z,1017.13
2022-12-03T11:56:04.327Z,1017.09
2022-12-03T11:57:00.679Z,1017.11
2022-12-03T11:58:00.661Z,1017.10
2022-12-03T11:59:00.657Z,1017.08
2022-12-03T12:00:00.637Z,1017.07
2022-12-03T12:01:00.629Z,1016.99
2022-12-03T12:02:00.613Z,1017.02
2022-12-03T12:03:00.641Z,1016.98
2022-12-03T12:04:00.683Z,1017.03
2022-12-03T12:05:00.574Z,1016.95
2022-12-03T12:06:00.556Z,1016.98